sensor_id;sensor_type;location;lat;lon;timestamp;P1;durP1;ratioP1;P2;durP2;ratioP2
29026;SDS011;16120;48.608;9.092;2022-09-13T00:03:51;149.23;;;67.87;;
29026;SDS011;16120;48.608;9.092;2022-09-13T00:07:47;146.73;;;65.57;;
29026;SDS011;16120;48.608;9.092;2022-09-13T00:11:44;138.93;;;62.93;;
29026;SDS011;16120;48.608;9.092;2022-09-13T00:15:41;148.57;;;73.97;;
29026;SDS011;16120;48.608;9.092;2022-09-13T00:19:37;163.70;;;95.80;;
29026;SDS011;16120;48.608;9.092;2022-09-13T00:23:32;145.77;;;60.83;;
29026;SDS011;16120;48.608;9.092;2022-09-13T00:27:28;178.70;;;124.23;;
29026;SDS011;16120;48.608;9.092;2022-09-13T00:31:25;1387.97;;;697.00;;
29026;SDS011;16120;48.608;9.092;2022-09-13T00:35:20;172.07;;;110.87;;
29026;SDS011;16120;48.608;9.092;2022-09-13T00:39:16;166.63;;;104.27;;
29026;SDS011;16120;48.608;9.092;2022-09-13T00:43:13;143.77;;;54.97;;
29026;SDS011;16120;48.608;9.092;2022-09-13T00:47:10;136.03;;;48.57;;
29026;SDS011;16120;48.608;9.092;2022-09-13T00:51:07;133.30;;;45.67;;
29026;SDS011;16120;48.608;9.092;2022-09-13T00:55:05;144.33;;;58.37;;
29026;SDS011;16120;48.608;9.092;2022-09-13T00:59:05;758.73;;;372.17;;
29026;SDS011;16120;48.608;9.092;2022-09-13T01:03:03;1380.67;;;683.77;;
29026;SDS011;16120;48.608;9.092;2022-09-13T01:07:00;128.03;;;36.60;;
29026;SDS011;16120;48.608;9.092;2022-09-13T01:10:56;757.83;;;361.93;;
29026;SDS011;16120;48.608;9.092;2022-09-13T01:14:54;136.43;;;41.93;;
29026;SDS011;16120;48.608;9.092;2022-09-13T01:18:51;1383.30;;;684.77;;
29026;SDS011;16120;48.608;9.092;2022-09-13T01:22:55;1378.37;;;682.13;;
29026;SDS011;16120;48.608;9.092;2022-09-13T01:27:06;154.47;;;50.37;;
29026;SDS011;16120;48.608;9.092;2022-09-13T01:31:06;1379.33;;;680.73;;
29026;SDS011;16120;48.608;9.092;2022-09-13T01:35:07;1383.17;;;684.10;;
29026;SDS011;16120;48.608;9.092;2022-09-13T01:39:06;142.63;;;48.30;;
29026;SDS011;16120;48.608;9.092;2022-09-13T01:43:16;137.40;;;48.63;;
29026;SDS011;16120;48.608;9.092;2022-09-13T01:47:18;139.77;;;57.27;;
29026;SDS011;16120;48.608;9.092;2022-09-13T01:51:19;148.53;;;57.37;;
29026;SDS011;16120;48.608;9.092;2022-09-13T01:55:19;160.40;;;95.23;;
29026;SDS011;16120;48.608;9.092;2022-09-13T01:59:17;145.07;;;50.40;;
29026;SDS011;16120;48.608;9.092;2022-09-13T02:03:16;150.77;;;67.93;;
29026;SDS011;16120;48.608;9.092;2022-09-13T02:07:14;1999.90;;;999.90;;
29026;SDS011;16120;48.608;9.092;2022-09-13T02:11:12;1999.90;;;999.90;;
29026;SDS011;16120;48.608;9.092;2022-09-13T02:15:08;1999.90;;;999.90;;
29026;SDS011;16120;48.608;9.092;2022-09-13T02:19:06;810.47;;;461.33;;
29026;SDS011;16120;48.608;9.092;2022-09-13T02:23:04;1999.90;;;999.90;;
29026;SDS011;16120;48.608;9.092;2022-09-13T02:27:02;1999.90;;;999.90;;
29026;SDS011;16120;48.608;9.092;2022-09-13T02:30:59;1999.90;;;999.90;;
29026;SDS011;16120;48.608;9.092;2022-09-13T02:34:57;1999.90;;;999.90;;
29026;SDS011;16120;48.608;9.092;2022-09-13T02:38:55;1999.90;;;999.90;;
29026;SDS011;16120;48.608;9.092;2022-09-13T02:42:52;1999.90;;;999.90;;
29026;SDS011;16120;48.608;9.092;2022-09-13T02:46:53;767.97;;;376.90;;
29026;SDS011;16120;48.608;9.092;2022-09-13T02:50:57;1999.90;;;999.90;;
29026;SDS011;16120;48.608;9.092;2022-09-13T02:54:55;1999.90;;;999.90;;
29026;SDS011;16120;48.608;9.092;2022-09-13T02:58:53;1999.90;;;999.90;;
29026;SDS011;16120;48.608;9.092;2022-09-13T03:02:50;1379.87;;;682.57;;
29026;SDS011;16120;48.608;9.092;2022-09-13T03:06:49;1999.90;;;999.90;;
29026;SDS011;16120;48.608;9.092;2022-09-13T03:10:47;1999.90;;;999.90;;
29026;SDS011;16120;48.608;9.092;2022-09-13T03:14:45;770.33;;;382.13;;
29026;SDS011;16120;48.608;9.092;2022-09-13T03:18:52;1999.90;;;999.90;;
29026;SDS011;16120;48.608;9.092;2022-09-13T03:23:20;1381.03;;;683.60;;
29026;SDS011;16120;48.608;9.092;2022-09-13T03:27:22;1380.80;;;681.00;;
29026;SDS011;16120;48.608;9.092;2022-09-13T03:31:26;1999.90;;;999.90;;
29026;SDS011;16120;48.608;9.092;2022-09-13T03:35:24;1999.90;;;999.90;;
29026;SDS011;16120;48.608;9.092;2022-09-13T03:39:25;1999.90;;;999.90;;
29026;SDS011;16120;48.608;9.092;2022-09-13T03:43:24;1379.57;;;684.27;;
29026;SDS011;16120;48.608;9.092;2022-09-13T03:47:21;1999.90;;;999.90;;
29026;SDS011;16120;48.608;9.092;2022-09-13T03:51:17;1999.90;;;999.90;;
29026;SDS011;16120;48.608;9.092;2022-09-13T03:55:16;1999.90;;;999.90;;
29026;SDS011;16120;48.608;9.092;2022-09-13T03:59:11;1999.90;;;999.90;;
29026;SDS011;16120;48.608;9.092;2022-09-13T04:03:07;1999.90;;;999.90;;
29026;SDS011;16120;48.608;9.092;2022-09-13T04:07:02;1999.90;;;999.90;;
29026;SDS011;16120;48.608;9.092;2022-09-13T04:10:58;1999.90;;;999.90;;
29026;SDS011;16120;48.608;9.092;2022-09-13T04:14:54;1383.27;;;684.37;;
29026;SDS011;16120;48.608;9.092;2022-09-13T04:18:49;1999.90;;;999.90;;
29026;SDS011;16120;48.608;9.092;2022-09-13T04:22:49;1999.90;;;999.90;;
29026;SDS011;16120;48.608;9.092;2022-09-13T04:26:48;1999.90;;;999.90;;
29026;SDS011;16120;48.608;9.092;2022-09-13T04:30:44;145.87;;;60.53;;
29026;SDS011;16120;48.608;9.092;2022-09-13T04:34:39;1383.23;;;684.77;;
29026;SDS011;16120;48.608;9.092;2022-09-13T04:38:34;1999.90;;;999.90;;
29026;SDS011;16120;48.608;9.092;2022-09-13T04:42:31;161.67;;;83.10;;
29026;SDS011;16120;48.608;9.092;2022-09-13T04:46:26;1999.90;;;999.90;;
29026;SDS011;16120;48.608;9.092;2022-09-13T04:50:22;759.33;;;365.33;;
29026;SDS011;16120;48.608;9.092;2022-09-13T04:54:18;1999.90;;;999.90;;
29026;SDS011;16120;48.608;9.092;2022-09-13T04:58:14;1999.90;;;999.90;;
29026;SDS011;16120;48.608;9.092;2022-09-13T05:02:10;1999.90;;;999.90;;
29026;SDS011;16120;48.608;9.092;2022-09-13T05:06:05;1999.90;;;999.90;;
29026;SDS011;16120;48.608;9.092;2022-09-13T05:10:01;1999.90;;;999.90;;
29026;SDS011;16120;48.608;9.092;2022-09-13T05:13:58;1999.90;;;999.90;;
29026;SDS011;16120;48.608;9.092;2022-09-13T05:17:54;1999.90;;;999.90;;
29026;SDS011;16120;48.608;9.092;2022-09-13T05:21:49;788.60;;;419.37;;
29026;SDS011;16120;48.608;9.092;2022-09-13T05:25:44;1999.90;;;999.90;;
29026;SDS011;16120;48.608;9.092;2022-09-13T05:29:40;1999.90;;;999.90;;
29026;SDS011;16120;48.608;9.092;2022-09-13T05:33:36;1999.90;;;999.90;;
29026;SDS011;16120;48.608;9.092;2022-09-13T05:37:32;1999.90;;;999.90;;
29026;SDS011;16120;48.608;9.092;2022-09-13T05:41:27;1999.90;;;999.90;;
29026;SDS011;16120;48.608;9.092;2022-09-13T05:45:23;1999.90;;;999.90;;
29026;SDS011;16120;48.608;9.092;2022-09-13T05:49:19;1999.90;;;999.90;;
29026;SDS011;16120;48.608;9.092;2022-09-13T05:53:14;1999.90;;;999.90;;
29026;SDS011;16120;48.608;9.092;2022-09-13T05:57:09;1999.90;;;999.90;;
29026;SDS011;16120;48.608;9.092;2022-09-13T06:01:06;1999.90;;;999.90;;
29026;SDS011;16120;48.608;9.092;2022-09-13T06:05:01;1999.90;;;999.90;;
29026;SDS011;16120;48.608;9.092;2022-09-13T06:08:56;1999.90;;;999.90;;
29026;SDS011;16120;48.608;9.092;2022-09-13T06:12:52;1999.90;;;999.90;;
29026;SDS011;16120;48.608;9.092;2022-09-13T06:16:48;1999.90;;;999.90;;
29026;SDS011;16120;48.608;9.092;2022-09-13T06:20:43;1999.90;;;999.90;;
29026;SDS011;16120;48.608;9.092;2022-09-13T06:24:39;1999.90;;;999.90;;
29026;SDS011;16120;48.608;9.092;2022-09-13T06:28:34;1999.90;;;999.90;;
29026;SDS011;16120;48.608;9.092;2022-09-13T06:32:31;1999.90;;;999.90;;
29026;SDS011;16120;48.608;9.092;2022-09-13T06:36:26;1999.90;;;999.90;;
29026;SDS011;16120;48.608;9.092;2022-09-13T06:40:22;1999.90;;;999.90;;
29026;SDS011;16120;48.608;9.092;2022-09-13T06:44:17;1999.90;;;999.90;;
29026;SDS011;16120;48.608;9.092;2022-09-13T06:48:13;1999.90;;;999.90;;
29026;SDS011;16120;48.608;9.092;2022-09-13T06:52:09;1999.90;;;999.90;;
29026;SDS011;16120;48.608;9.092;2022-09-13T06:56:04;1999.90;;;999.90;;
29026;SDS011;16120;48.608;9.092;2022-09-13T07:00:00;1999.90;;;999.90;;
29026;SDS011;16120;48.608;9.092;2022-09-13T07:03:58;1999.90;;;999.90;;
29026;SDS011;16120;48.608;9.092;2022-09-13T07:07:54;1999.90;;;999.90;;
29026;SDS011;16120;48.608;9.092;2022-09-13T07:11:50;1999.90;;;999.90;;
29026;SDS011;16120;48.608;9.092;2022-09-13T07:15:45;1999.90;;;999.90;;
29026;SDS011;16120;48.608;9.092;2022-09-13T07:19:42;1999.90;;;999.90;;
29026;SDS011;16120;48.608;9.092;2022-09-13T07:23:37;1999.90;;;999.90;;
29026;SDS011;16120;48.608;9.092;2022-09-13T07:27:33;1999.90;;;999.90;;
29026;SDS011;16120;48.608;9.092;2022-09-13T07:31:29;1999.90;;;999.90;;
29026;SDS011;16120;48.608;9.092;2022-09-13T07:35:25;1999.90;;;999.90;;
29026;SDS011;16120;48.608;9.092;2022-09-13T07:39:20;164.23;;;102.93;;
29026;SDS011;16120;48.608;9.092;2022-09-13T07:43:16;166.17;;;107.30;;
29026;SDS011;16120;48.608;9.092;2022-09-13T07:47:11;169.00;;;112.27;;
29026;SDS011;16120;48.608;9.092;2022-09-13T07:51:08;176.73;;;129.07;;
29026;SDS011;16120;48.608;9.092;2022-09-13T07:55:04;167.77;;;116.20;;
29026;SDS011;16120;48.608;9.092;2022-09-13T07:58:59;158.10;;;106.20;;
29026;SDS011;16120;48.608;9.092;2022-09-13T08:02:55;177.00;;;138.03;;
29026;SDS011;16120;48.608;9.092;2022-09-13T08:06:51;166.17;;;116.93;;
29026;SDS011;16120;48.608;9.092;2022-09-13T08:10:47;148.17;;;75.73;;
29026;SDS011;16120;48.608;9.092;2022-09-13T08:14:42;151.33;;;78.60;;
29026;SDS011;16120;48.608;9.092;2022-09-13T08:18:41;208.40;;;186.27;;
29026;SDS011;16120;48.608;9.092;2022-09-13T08:22:38;203.73;;;181.57;;
29026;SDS011;16120;48.608;9.092;2022-09-13T08:26:33;158.83;;;102.80;;
29026;SDS011;16120;48.608;9.092;2022-09-13T08:30:29;314.87;;;287.07;;
29026;SDS011;16120;48.608;9.092;2022-09-13T08:34:24;224.97;;;202.90;;
29026;SDS011;16120;48.608;9.092;2022-09-13T08:38:21;181.77;;;141.83;;
29026;SDS011;16120;48.608;9.092;2022-09-13T08:42:20;147.33;;;76.90;;
29026;SDS011;16120;48.608;9.092;2022-09-13T08:46:19;202.13;;;179.37;;
29026;SDS011;16120;48.608;9.092;2022-09-13T08:50:16;156.00;;;94.33;;
29026;SDS011;16120;48.608;9.092;2022-09-13T08:54:15;154.67;;;88.40;;
29026;SDS011;16120;48.608;9.092;2022-09-13T08:58:16;144.47;;;72.37;;
29026;SDS011;16120;48.608;9.092;2022-09-13T09:02:18;158.90;;;101.37;;
29026;SDS011;16120;48.608;9.092;2022-09-13T09:06:16;140.97;;;60.93;;
29026;SDS011;16120;48.608;9.092;2022-09-13T09:10:15;136.63;;;54.60;;
29026;SDS011;16120;48.608;9.092;2022-09-13T09:14:13;138.43;;;60.30;;
29026;SDS011;16120;48.608;9.092;2022-09-13T09:18:11;138.50;;;61.43;;
29026;SDS011;16120;48.608;9.092;2022-09-13T09:22:10;135.30;;;54.43;;
29026;SDS011;16120;48.608;9.092;2022-09-13T09:26:14;120.20;;;38.97;;
29026;SDS011;16120;48.608;9.092;2022-09-13T09:30:11;121.23;;;39.03;;
29026;SDS011;16120;48.608;9.092;2022-09-13T09:34:09;125.53;;;49.47;;
29026;SDS011;16120;48.608;9.092;2022-09-13T09:38:12;136.93;;;59.33;;
29026;SDS011;16120;48.608;9.092;2022-09-13T09:42:13;130.93;;;47.43;;
29026;SDS011;16120;48.608;9.092;2022-09-13T09:46:09;132.53;;;49.73;;
29026;SDS011;16120;48.608;9.092;2022-09-13T09:50:06;138.60;;;64.80;;
29026;SDS011;16120;48.608;9.092;2022-09-13T09:54:03;155.70;;;103.53;;
29026;SDS011;16120;48.608;9.092;2022-09-13T09:58:01;143.77;;;73.00;;
29026;SDS011;16120;48.608;9.092;2022-09-13T10:01:56;143.03;;;77.03;;
29026;SDS011;16120;48.608;9.092;2022-09-13T10:06:02;149.30;;;96.23;;
29026;SDS011;16120;48.608;9.092;2022-09-13T10:09:58;140.63;;;71.47;;
29026;SDS011;16120;48.608;9.092;2022-09-13T10:13:59;140.50;;;75.93;;
29026;SDS011;16120;48.608;9.092;2022-09-13T10:18:02;151.83;;;95.30;;
29026;SDS011;16120;48.608;9.092;2022-09-13T10:21:58;130.77;;;44.80;;
29026;SDS011;16120;48.608;9.092;2022-09-13T10:25:55;126.07;;;41.20;;
29026;SDS011;16120;48.608;9.092;2022-09-13T10:29:54;118.67;;;39.67;;
29026;SDS011;16120;48.608;9.092;2022-09-13T10:33:55;133.70;;;58.90;;
29026;SDS011;16120;48.608;9.092;2022-09-13T10:37:51;120.50;;;42.23;;
29026;SDS011;16120;48.608;9.092;2022-09-13T10:41:48;111.30;;;24.00;;
29026;SDS011;16120;48.608;9.092;2022-09-13T10:45:45;111.00;;;24.27;;
29026;SDS011;16120;48.608;9.092;2022-09-13T10:49:44;111.80;;;26.53;;
29026;SDS011;16120;48.608;9.092;2022-09-13T10:53:40;112.50;;;25.30;;
29026;SDS011;16120;48.608;9.092;2022-09-13T10:57:36;111.37;;;24.37;;
29026;SDS011;16120;48.608;9.092;2022-09-13T11:01:38;112.37;;;28.07;;
29026;SDS011;16120;48.608;9.092;2022-09-13T11:05:36;113.80;;;25.90;;
29026;SDS011;16120;48.608;9.092;2022-09-13T11:09:34;109.60;;;21.60;;
29026;SDS011;16120;48.608;9.092;2022-09-13T11:13:34;109.07;;;19.33;;
29026;SDS011;16120;48.608;9.092;2022-09-13T11:17:37;110.70;;;22.67;;
29026;SDS011;16120;48.608;9.092;2022-09-13T11:21:41;134.13;;;60.23;;
29026;SDS011;16120;48.608;9.092;2022-09-13T11:25:41;113.37;;;29.03;;
29026;SDS011;16120;48.608;9.092;2022-09-13T11:33:52;111.90;;;26.03;;
29026;SDS011;16120;48.608;9.092;2022-09-13T11:37:55;113.37;;;26.00;;
29026;SDS011;16120;48.608;9.092;2022-09-13T11:41:56;117.00;;;36.70;;
29026;SDS011;16120;48.608;9.092;2022-09-13T11:45:57;111.00;;;24.83;;
29026;SDS011;16120;48.608;9.092;2022-09-13T11:54:09;111.50;;;26.30;;
29026;SDS011;16120;48.608;9.092;2022-09-13T11:58:09;118.73;;;28.77;;
29026;SDS011;16120;48.608;9.092;2022-09-13T12:02:11;111.53;;;20.27;;
29026;SDS011;16120;48.608;9.092;2022-09-13T12:06:10;108.00;;;18.87;;
29026;SDS011;16120;48.608;9.092;2022-09-13T12:10:12;107.40;;;18.07;;
29026;SDS011;16120;48.608;9.092;2022-09-13T12:14:10;107.97;;;18.50;;
29026;SDS011;16120;48.608;9.092;2022-09-13T12:18:09;108.10;;;19.00;;
29026;SDS011;16120;48.608;9.092;2022-09-13T12:22:06;106.70;;;19.00;;
29026;SDS011;16120;48.608;9.092;2022-09-13T12:26:04;107.97;;;19.50;;
29026;SDS011;16120;48.608;9.092;2022-09-13T12:30:03;125.57;;;43.07;;
29026;SDS011;16120;48.608;9.092;2022-09-13T12:33:59;109.10;;;22.10;;
29026;SDS011;16120;48.608;9.092;2022-09-13T12:38:05;106.33;;;17.57;;
29026;SDS011;16120;48.608;9.092;2022-09-13T12:42:20;108.20;;;20.00;;
29026;SDS011;16120;48.608;9.092;2022-09-13T12:46:24;108.33;;;20.63;;
29026;SDS011;16120;48.608;9.092;2022-09-13T12:50:25;108.90;;;19.47;;
29026;SDS011;16120;48.608;9.092;2022-09-13T12:54:39;108.67;;;20.63;;
29026;SDS011;16120;48.608;9.092;2022-09-13T12:58:51;108.57;;;19.90;;
29026;SDS011;16120;48.608;9.092;2022-09-13T13:02:54;110.63;;;20.13;;
29026;SDS011;16120;48.608;9.092;2022-09-13T13:06:51;110.40;;;20.70;;
29026;SDS011;16120;48.608;9.092;2022-09-13T13:10:58;110.30;;;22.27;;
29026;SDS011;16120;48.608;9.092;2022-09-13T13:14:55;112.27;;;28.20;;
29026;SDS011;16120;48.608;9.092;2022-09-13T13:18:52;112.93;;;24.30;;
29026;SDS011;16120;48.608;9.092;2022-09-13T13:22:48;109.90;;;22.10;;
29026;SDS011;16120;48.608;9.092;2022-09-13T13:26:44;113.00;;;29.27;;
29026;SDS011;16120;48.608;9.092;2022-09-13T13:30:46;111.10;;;25.47;;
29026;SDS011;16120;48.608;9.092;2022-09-13T13:34:44;110.70;;;24.27;;
29026;SDS011;16120;48.608;9.092;2022-09-13T13:38:42;111.77;;;26.37;;
29026;SDS011;16120;48.608;9.092;2022-09-13T13:42:39;118.37;;;42.03;;
29026;SDS011;16120;48.608;9.092;2022-09-13T13:46:36;112.27;;;26.67;;
29026;SDS011;16120;48.608;9.092;2022-09-13T13:50:31;112.00;;;25.33;;
29026;SDS011;16120;48.608;9.092;2022-09-13T13:54:27;111.43;;;26.60;;
29026;SDS011;16120;48.608;9.092;2022-09-13T13:58:28;112.10;;;27.80;;
29026;SDS011;16120;48.608;9.092;2022-09-13T14:02:28;113.27;;;26.30;;
29026;SDS011;16120;48.608;9.092;2022-09-13T14:06:27;112.07;;;27.63;;
29026;SDS011;16120;48.608;9.092;2022-09-13T14:10:25;109.87;;;22.87;;
29026;SDS011;16120;48.608;9.092;2022-09-13T14:14:33;112.07;;;27.67;;
29026;SDS011;16120;48.608;9.092;2022-09-13T14:22:46;109.40;;;21.10;;
29026;SDS011;16120;48.608;9.092;2022-09-13T14:26:41;111.27;;;26.47;;
29026;SDS011;16120;48.608;9.092;2022-09-13T14:30:37;109.50;;;22.93;;
29026;SDS011;16120;48.608;9.092;2022-09-13T14:34:33;110.47;;;24.90;;
29026;SDS011;16120;48.608;9.092;2022-09-13T14:38:30;112.60;;;30.10;;
29026;SDS011;16120;48.608;9.092;2022-09-13T14:42:35;109.97;;;24.90;;
29026;SDS011;16120;48.608;9.092;2022-09-13T14:46:31;112.93;;;29.77;;
29026;SDS011;16120;48.608;9.092;2022-09-13T14:50:31;113.90;;;32.10;;
29026;SDS011;16120;48.608;9.092;2022-09-13T14:54:30;114.57;;;36.40;;
29026;SDS011;16120;48.608;9.092;2022-09-13T14:58:25;115.60;;;37.57;;
29026;SDS011;16120;48.608;9.092;2022-09-13T15:02:23;115.67;;;35.87;;
29026;SDS011;16120;48.608;9.092;2022-09-13T15:06:22;114.57;;;34.67;;
29026;SDS011;16120;48.608;9.092;2022-09-13T15:10:21;114.57;;;32.80;;
29026;SDS011;16120;48.608;9.092;2022-09-13T15:14:23;114.47;;;33.90;;
29026;SDS011;16120;48.608;9.092;2022-09-13T15:18:22;114.60;;;35.23;;
29026;SDS011;16120;48.608;9.092;2022-09-13T15:22:20;115.20;;;35.70;;
29026;SDS011;16120;48.608;9.092;2022-09-13T15:26:19;115.37;;;36.73;;
29026;SDS011;16120;48.608;9.092;2022-09-13T15:30:19;114.40;;;33.17;;
29026;SDS011;16120;48.608;9.092;2022-09-13T15:34:19;115.53;;;34.30;;
29026;SDS011;16120;48.608;9.092;2022-09-13T15:38:17;110.47;;;24.27;;
29026;SDS011;16120;48.608;9.092;2022-09-13T15:42:15;126.37;;;45.77;;
29026;SDS011;16120;48.608;9.092;2022-09-13T15:46:10;125.83;;;50.07;;
29026;SDS011;16120;48.608;9.092;2022-09-13T15:50:08;112.47;;;23.60;;
29026;SDS011;16120;48.608;9.092;2022-09-13T15:54:12;115.37;;;32.87;;
29026;SDS011;16120;48.608;9.092;2022-09-13T15:58:09;121.57;;;36.60;;
29026;SDS011;16120;48.608;9.092;2022-09-13T16:02:15;131.80;;;55.50;;
29026;SDS011;16120;48.608;9.092;2022-09-13T16:06:11;114.07;;;24.83;;
29026;SDS011;16120;48.608;9.092;2022-09-13T16:10:09;145.73;;;86.40;;
29026;SDS011;16120;48.608;9.092;2022-09-13T16:14:06;131.33;;;56.13;;
29026;SDS011;16120;48.608;9.092;2022-09-13T16:18:01;122.87;;;35.67;;
29026;SDS011;16120;48.608;9.092;2022-09-13T16:21:56;123.43;;;38.53;;
29026;SDS011;16120;48.608;9.092;2022-09-13T16:25:53;113.07;;;30.73;;
29026;SDS011;16120;48.608;9.092;2022-09-13T16:29:51;115.43;;;31.10;;
29026;SDS011;16120;48.608;9.092;2022-09-13T16:33:46;111.83;;;25.83;;
29026;SDS011;16120;48.608;9.092;2022-09-13T16:37:42;116.13;;;36.57;;
29026;SDS011;16120;48.608;9.092;2022-09-13T16:41:37;112.27;;;27.07;;
29026;SDS011;16120;48.608;9.092;2022-09-13T16:45:36;114.17;;;29.07;;
29026;SDS011;16120;48.608;9.092;2022-09-13T16:49:31;114.30;;;28.50;;
29026;SDS011;16120;48.608;9.092;2022-09-13T16:53:29;115.83;;;30.73;;
29026;SDS011;16120;48.608;9.092;2022-09-13T16:57:25;114.77;;;30.17;;
29026;SDS011;16120;48.608;9.092;2022-09-13T17:01:22;134.07;;;56.40;;
29026;SDS011;16120;48.608;9.092;2022-09-13T17:05:18;121.10;;;39.83;;
29026;SDS011;16120;48.608;9.092;2022-09-13T17:09:13;116.17;;;30.33;;
29026;SDS011;16120;48.608;9.092;2022-09-13T17:13:08;151.63;;;92.50;;
29026;SDS011;16120;48.608;9.092;2022-09-13T17:17:05;131.37;;;58.53;;
29026;SDS011;16120;48.608;9.092;2022-09-13T17:21:00;132.83;;;55.97;;
29026;SDS011;16120;48.608;9.092;2022-09-13T17:24:55;128.53;;;47.53;;
29026;SDS011;16120;48.608;9.092;2022-09-13T17:28:50;124.50;;;36.63;;
29026;SDS011;16120;48.608;9.092;2022-09-13T17:32:47;133.27;;;58.00;;
29026;SDS011;16120;48.608;9.092;2022-09-13T17:36:42;129.87;;;48.70;;
29026;SDS011;16120;48.608;9.092;2022-09-13T17:40:38;124.50;;;54.03;;
29026;SDS011;16120;48.608;9.092;2022-09-13T17:44:33;136.00;;;60.13;;
29026;SDS011;16120;48.608;9.092;2022-09-13T17:48:29;151.90;;;94.40;;
29026;SDS011;16120;48.608;9.092;2022-09-13T17:52:25;155.10;;;102.40;;
29026;SDS011;16120;48.608;9.092;2022-09-13T17:56:20;190.33;;;166.53;;
29026;SDS011;16120;48.608;9.092;2022-09-13T18:00:16;330.33;;;302.33;;
29026;SDS011;16120;48.608;9.092;2022-09-13T18:04:13;221.67;;;199.13;;
29026;SDS011;16120;48.608;9.092;2022-09-13T18:08:08;136.00;;;58.07;;
29026;SDS011;16120;48.608;9.092;2022-09-13T18:12:04;120.07;;;33.50;;
29026;SDS011;16120;48.608;9.092;2022-09-13T18:15:59;130.47;;;46.00;;
29026;SDS011;16120;48.608;9.092;2022-09-13T18:19:56;122.17;;;43.00;;
29026;SDS011;16120;48.608;9.092;2022-09-13T18:23:52;124.77;;;46.27;;
29026;SDS011;16120;48.608;9.092;2022-09-13T18:27:47;149.03;;;87.20;;
29026;SDS011;16120;48.608;9.092;2022-09-13T18:31:42;134.43;;;55.33;;
29026;SDS011;16120;48.608;9.092;2022-09-13T18:35:39;120.50;;;39.55;;
29026;SDS011;16120;48.608;9.092;2022-09-13T18:39:34;121.67;;;39.67;;
29026;SDS011;16120;48.608;9.092;2022-09-13T18:43:30;125.67;;;46.13;;
29026;SDS011;16120;48.608;9.092;2022-09-13T18:47:25;125.07;;;45.97;;
29026;SDS011;16120;48.608;9.092;2022-09-13T18:51:23;118.78;;;34.70;;
29026;SDS011;16120;48.608;9.092;2022-09-13T18:55:18;120.40;;;39.03;;
29026;SDS011;16120;48.608;9.092;2022-09-13T18:59:13;119.10;;;33.13;;
29026;SDS011;16120;48.608;9.092;2022-09-13T19:03:09;134.33;;;52.30;;
29026;SDS011;16120;48.608;9.092;2022-09-13T19:07:05;128.07;;;46.00;;
29026;SDS011;16120;48.608;9.092;2022-09-13T19:11:01;126.83;;;44.77;;
29026;SDS011;16120;48.608;9.092;2022-09-13T19:14:56;130.70;;;54.80;;
29026;SDS011;16120;48.608;9.092;2022-09-13T19:18:51;163.17;;;124.03;;
29026;SDS011;16120;48.608;9.092;2022-09-13T19:22:48;145.07;;;77.17;;
29026;SDS011;16120;48.608;9.092;2022-09-13T19:26:43;123.27;;;39.13;;
29026;SDS011;16120;48.608;9.092;2022-09-13T19:30:38;122.27;;;36.77;;
29026;SDS011;16120;48.608;9.092;2022-09-13T19:34:34;121.43;;;36.83;;
29026;SDS011;16120;48.608;9.092;2022-09-13T19:38:30;129.40;;;34.77;;
29026;SDS011;16120;48.608;9.092;2022-09-13T19:42:26;149.27;;;77.47;;
29026;SDS011;16120;48.608;9.092;2022-09-13T19:46:22;126.73;;;40.00;;
29026;SDS011;16120;48.608;9.092;2022-09-13T19:50:17;145.57;;;63.43;;
29026;SDS011;16120;48.608;9.092;2022-09-13T19:54:14;153.87;;;83.97;;
29026;SDS011;16120;48.608;9.092;2022-09-13T19:58:09;135.80;;;54.17;;
29026;SDS011;16120;48.608;9.092;2022-09-13T20:02:05;153.97;;;84.37;;
29026;SDS011;16120;48.608;9.092;2022-09-13T20:06:00;150.40;;;80.90;;
29026;SDS011;16120;48.608;9.092;2022-09-13T20:09:57;129.90;;;51.50;;
29026;SDS011;16120;48.608;9.092;2022-09-13T20:13:52;134.37;;;50.87;;
29026;SDS011;16120;48.608;9.092;2022-09-13T20:17:47;153.77;;;95.40;;
29026;SDS011;16120;48.608;9.092;2022-09-13T20:21:43;151.90;;;90.53;;
29026;SDS011;16120;48.608;9.092;2022-09-13T20:25:39;160.17;;;106.77;;
29026;SDS011;16120;48.608;9.092;2022-09-13T20:29:34;179.50;;;117.07;;
29026;SDS011;16120;48.608;9.092;2022-09-13T20:33:30;123.00;;;38.50;;
29026;SDS011;16120;48.608;9.092;2022-09-13T20:37:25;154.33;;;101.13;;
29026;SDS011;16120;48.608;9.092;2022-09-13T20:41:21;163.97;;;111.43;;
29026;SDS011;16120;48.608;9.092;2022-09-13T20:45:17;139.03;;;54.00;;
29026;SDS011;16120;48.608;9.092;2022-09-13T20:49:12;130.63;;;54.07;;
29026;SDS011;16120;48.608;9.092;2022-09-13T20:53:07;125.77;;;42.07;;
29026;SDS011;16120;48.608;9.092;2022-09-13T20:57:04;180.37;;;138.13;;
29026;SDS011;16120;48.608;9.092;2022-09-13T21:01:00;134.47;;;48.27;;
29026;SDS011;16120;48.608;9.092;2022-09-13T21:04:55;155.63;;;90.33;;
29026;SDS011;16120;48.608;9.092;2022-09-13T21:08:51;149.37;;;81.80;;
29026;SDS011;16120;48.608;9.092;2022-09-13T21:12:49;146.00;;;65.97;;
29026;SDS011;16120;48.608;9.092;2022-09-13T21:16:45;152.93;;;88.20;;
29026;SDS011;16120;48.608;9.092;2022-09-13T21:20:40;140.03;;;60.40;;
29026;SDS011;16120;48.608;9.092;2022-09-13T21:24:35;166.17;;;114.67;;
29026;SDS011;16120;48.608;9.092;2022-09-13T21:28:32;148.80;;;64.83;;
29026;SDS011;16120;48.608;9.092;2022-09-13T21:32:27;129.97;;;53.70;;
29026;SDS011;16120;48.608;9.092;2022-09-13T21:36:22;133.80;;;57.30;;
29026;SDS011;16120;48.608;9.092;2022-09-13T21:40:18;162.27;;;111.70;;
29026;SDS011;16120;48.608;9.092;2022-09-13T21:44:14;201.13;;;179.77;;
29026;SDS011;16120;48.608;9.092;2022-09-13T21:48:10;150.60;;;73.00;;
29026;SDS011;16120;48.608;9.092;2022-09-13T21:52:05;151.57;;;81.27;;
29026;SDS011;16120;48.608;9.092;2022-09-13T21:56:01;167.63;;;121.67;;
29026;SDS011;16120;48.608;9.092;2022-09-13T21:59:58;168.97;;;120.53;;
29026;SDS011;16120;48.608;9.092;2022-09-13T22:03:53;221.03;;;198.47;;
29026;SDS011;16120;48.608;9.092;2022-09-13T22:07:49;192.37;;;171.10;;
29026;SDS011;16120;48.608;9.092;2022-09-13T22:11:44;196.93;;;169.90;;
29026;SDS011;16120;48.608;9.092;2022-09-13T22:15:41;159.07;;;113.83;;
29026;SDS011;16120;48.608;9.092;2022-09-13T22:19:36;173.23;;;128.90;;
29026;SDS011;16120;48.608;9.092;2022-09-13T22:23:32;179.97;;;144.17;;
29026;SDS011;16120;48.608;9.092;2022-09-13T22:27:27;172.77;;;127.33;;
29026;SDS011;16120;48.608;9.092;2022-09-13T22:31:24;166.07;;;107.87;;
29026;SDS011;16120;48.608;9.092;2022-09-13T22:35:19;142.53;;;55.90;;
29026;SDS011;16120;48.608;9.092;2022-09-13T22:39:15;129.97;;;47.93;;
29026;SDS011;16120;48.608;9.092;2022-09-13T22:43:10;146.50;;;69.40;;
29026;SDS011;16120;48.608;9.092;2022-09-13T22:47:07;127.90;;;46.30;;
29026;SDS011;16120;48.608;9.092;2022-09-13T22:51:02;144.20;;;63.40;;